Time;durP1;ratioP1;P1;durP2;ratioP2;P2;SDS_P1;SDS_P2;PMS_P1;PMS_P2;Temp;Humidity;BMP_temperature;BMP_pressure;BME280_temperature;BME280_humidity;BME280_pressure;Samples;Min_cycle;Max_cycle;Signal;HPM_P1;HPM_P2
2022/03/21 00:01:22;;;;;;;70.88;32.25;;;;;;;;;;5074665;28;20017;-64
2022/03/21 00:03:48;;;;;;;68.35;34.67;;;;;;;;;;5074897;28;20441;-65
2022/03/21 00:06:15;;;;;;;67.32;32.20;;;;;;;;;;5074400;28;20044;-64
2022/03/21 00:08:43;;;;;;;69.90;31.85;;;;;;;;;;5074798;28;20020;-64
2022/03/21 00:11:09;;;;;;;64.72;33.00;;;;;;;;;;5074588;28;20028;-64
2022/03/21 00:13:36;;;;;;;68.53;32.45;;;;;;;;;;5074550;28;20064;-64
2022/03/21 00:16:04;;;;;;;73.13;33.00;;;;;;;;;;5074078;28;20039;-64
2022/03/21 00:18:31;;;;;;;69.28;33.33;;;;;;;;;;5070317;28;20388;-64
2022/03/21 00:20:57;;;;;;;68.90;31.73;;;;;;;;;;5074516;28;20033;-64
2022/03/21 00:23:24;;;;;;;69.68;32.90;;;;;;;;;;5073243;28;20054;-64
2022/03/21 00:25:51;;;;;;;65.43;31.45;;;;;;;;;;5074119;28;20029;-64
2022/03/21 00:28:17;;;;;;;66.95;33.38;;;;;;;;;;5073818;28;20034;-64
2022/03/21 00:30:43;;;;;;;68.30;33.03;;;;;;;;;;5072731;28;20460;-64
2022/03/21 00:33:10;;;;;;;64.20;33.15;;;;;;;;;;5074032;28;20039;-65
2022/03/21 00:35:36;;;;;;;65.22;31.25;;;;;;;;;;5073023;28;20017;-64
2022/03/21 00:38:03;;;;;;;61.35;31.45;;;;;;;;;;5074024;28;20040;-64
2022/03/21 00:40:30;;;;;;;66.72;32.63;;;;;;;;;;5073819;28;20522;-64
2022/03/21 00:42:57;;;;;;;72.53;33.50;;;;;;;;;;5074044;28;20082;-64
2022/03/21 00:45:24;;;;;;;67.72;32.63;;;;;;;;;;5073561;28;20036;-64
2022/03/21 00:47:51;;;;;;;65.63;34.22;;;;;;;;;;5074075;28;20065;-64
2022/03/21 00:50:18;;;;;;;68.30;33.20;;;;;;;;;;5073353;28;20032;-64
2022/03/21 00:52:46;;;;;;;69.30;33.58;;;;;;;;;;5073897;28;20476;-64
2022/03/21 00:55:13;;;;;;;66.88;31.92;;;;;;;;;;5073889;28;20024;-64
2022/03/21 00:57:42;;;;;;;64.75;32.00;;;;;;;;;;5073618;28;20025;-64
2022/03/21 01:00:12;;;;;;;71.82;33.65;;;;;;;;;;5073118;28;20081;-64
2022/03/21 01:02:39;;;;;;;64.88;31.50;;;;;;;;;;5073768;28;20035;-64
2022/03/21 01:05:06;;;;;;;64.25;32.03;;;;;;;;;;5073738;28;20066;-64
2022/03/21 01:07:33;;;;;;;68.93;32.92;;;;;;;;;;5073458;28;20139;-64
2022/03/21 01:09:59;;;;;;;68.88;32.15;;;;;;;;;;5072624;28;20062;-64
2022/03/21 01:12:26;;;;;;;61.58;30.70;;;;;;;;;;5072764;28;20086;-64
2022/03/21 01:14:52;;;;;;;66.05;31.30;;;;;;;;;;5073173;28;20041;-64
2022/03/21 01:17:18;;;;;;;67.07;31.48;;;;;;;;;;5072952;28;20025;-64
2022/03/21 01:19:44;;;;;;;67.80;33.20;;;;;;;;;;5072840;28;20475;-64
2022/03/21 01:22:11;;;;;;;72.88;32.22;;;;;;;;;;5072666;28;20105;-64
2022/03/21 01:24:38;;;;;;;59.25;29.58;;;;;;;;;;5073137;28;20028;-64
2022/03/21 01:27:04;;;;;;;73.70;32.40;;;;;;;;;;5073206;28;20116;-64
2022/03/21 01:29:30;;;;;;;69.10;32.08;;;;;;;;;;5072923;28;20048;-64
2022/03/21 01:31:57;;;;;;;70.70;31.95;;;;;;;;;;5072958;28;20456;-64
2022/03/21 01:34:23;;;;;;;61.63;31.60;;;;;;;;;;5071772;28;20423;-64
2022/03/21 01:36:49;;;;;;;65.38;30.98;;;;;;;;;;5072902;28;20021;-64
2022/03/21 01:39:15;;;;;;;63.75;31.45;;;;;;;;;;5072894;28;20024;-64
2022/03/21 01:41:41;;;;;;;64.63;32.22;;;;;;;;;;5071975;28;20369;-64
2022/03/21 01:44:08;;;;;;;67.45;31.50;;;;;;;;;;5072102;28;20077;-64
2022/03/21 01:46:35;;;;;;;77.88;31.75;;;;;;;;;;5072629;28;20039;-64
2022/03/21 01:49:02;;;;;;;74.07;31.98;;;;;;;;;;5068867;28;20032;-64
2022/03/21 01:51:30;;;;;;;66.63;31.25;;;;;;;;;;5072318;28;20020;-64
2022/03/21 01:56:42;;;;;;;67.00;29.80;;;;;;;;;;5069921;28;20021;-64
2022/03/21 01:59:09;;;;;;;65.30;31.67;;;;;;;;;;5072607;28;20036;-65
2022/03/21 02:01:36;;;;;;;56.78;29.75;;;;;;;;;;5071942;28;20055;-64
2022/03/21 02:04:02;;;;;;;67.57;30.60;;;;;;;;;;5072208;28;20063;-64
2022/03/21 02:06:29;;;;;;;66.55;31.48;;;;;;;;;;5072054;28;20392;-64
2022/03/21 02:09:00;;;;;;;63.90;30.05;;;;;;;;;;5071073;28;20160;-64
2022/03/21 02:11:26;;;;;;;64.28;31.48;;;;;;;;;;5071658;28;20035;-64
2022/03/21 02:13:54;;;;;;;65.97;30.00;;;;;;;;;;5072228;28;20066;-64
2022/03/21 02:16:20;;;;;;;60.75;28.98;;;;;;;;;;5071754;28;20029;-64
2022/03/21 02:18:48;;;;;;;64.80;29.05;;;;;;;;;;5069042;28;20123;-64
2022/03/21 02:21:24;;;;;;;63.05;32.50;;;;;;;;;;5070917;28;20029;-64
2022/03/21 02:23:56;;;;;;;63.35;30.45;;;;;;;;;;5057280;28;20063;-64
2022/03/21 02:26:23;;;;;;;64.18;29.95;;;;;;;;;;5071084;28;20416;-64
2022/03/21 02:28:50;;;;;;;61.30;30.17;;;;;;;;;;5072242;28;20644;-64
2022/03/21 02:31:17;;;;;;;54.25;28.60;;;;;;;;;;5072486;28;20135;-64
2022/03/21 02:33:44;;;;;;;58.15;28.40;;;;;;;;;;5072215;28;20028;-64
2022/03/21 02:36:12;;;;;;;56.85;29.50;;;;;;;;;;5072397;28;20021;-64
2022/03/21 02:38:39;;;;;;;59.70;30.70;;;;;;;;;;5072136;28;20040;-64
2022/03/21 02:41:05;;;;;;;53.45;27.85;;;;;;;;;;5071207;28;20024;-64
2022/03/21 02:43:32;;;;;;;62.03;30.38;;;;;;;;;;5071451;28;20025;-64
2022/03/21 02:46:07;;;;;;;60.20;30.83;;;;;;;;;;5071412;28;20032;-64
2022/03/21 02:48:33;;;;;;;64.55;30.40;;;;;;;;;;5074167;28;20082;-64
2022/03/21 02:51:01;;;;;;;58.88;28.13;;;;;;;;;;5075994;28;20019;-64
2022/03/21 02:53:30;;;;;;;58.40;29.38;;;;;;;;;;5075787;28;20033;-64
2022/03/21 02:55:56;;;;;;;59.53;29.67;;;;;;;;;;5075637;28;20488;-64
2022/03/21 02:58:22;;;;;;;52.20;27.25;;;;;;;;;;5075707;28;20036;-64
2022/03/21 03:00:49;;;;;;;55.75;27.75;;;;;;;;;;5075772;28;20461;-64
2022/03/21 03:03:15;;;;;;;58.92;27.60;;;;;;;;;;5075688;28;20020;-64
2022/03/21 03:05:41;;;;;;;56.70;27.00;;;;;;;;;;5075337;28;20353;-64
2022/03/21 03:08:07;;;;;;;62.85;29.83;;;;;;;;;;5075541;28;20035;-64
2022/03/21 03:10:34;;;;;;;57.80;28.00;;;;;;;;;;5073758;28;20555;-64
2022/03/21 03:13:00;;;;;;;49.50;25.88;;;;;;;;;;5075474;28;20032;-64
2022/03/21 03:15:26;;;;;;;54.22;27.80;;;;;;;;;;5074815;28;20020;-64
2022/03/21 03:17:52;;;;;;;53.13;27.35;;;;;;;;;;5067719;28;20034;-64
2022/03/21 03:20:18;;;;;;;56.63;27.83;;;;;;;;;;5075707;28;20040;-64
2022/03/21 03:22:45;;;;;;;50.05;25.40;;;;;;;;;;5074993;28;20019;-64
2022/03/21 03:25:12;;;;;;;53.75;27.13;;;;;;;;;;5075224;28;20044;-65
2022/03/21 03:27:38;;;;;;;57.33;25.38;;;;;;;;;;5074575;28;20024;-64
2022/03/21 03:30:04;;;;;;;58.65;27.02;;;;;;;;;;5075163;28;20032;-64
2022/03/21 03:32:30;;;;;;;59.70;28.60;;;;;;;;;;5075185;28;20028;-64
2022/03/21 03:34:56;;;;;;;63.60;30.17;;;;;;;;;;5075080;28;20017;-64
2022/03/21 03:37:23;;;;;;;54.88;27.17;;;;;;;;;;5073882;28;20396;-64
2022/03/21 03:39:49;;;;;;;51.42;26.48;;;;;;;;;;5074372;28;20029;-64
2022/03/21 03:42:15;;;;;;;53.08;26.45;;;;;;;;;;5074961;28;20023;-64
2022/03/21 03:44:41;;;;;;;57.72;28.13;;;;;;;;;;5068270;28;20051;-64
2022/03/21 03:47:07;;;;;;;52.72;27.02;;;;;;;;;;5069376;28;20111;-64
2022/03/21 03:49:33;;;;;;;55.88;25.13;;;;;;;;;;5073173;28;20041;-64
2022/03/21 03:51:59;;;;;;;53.22;26.70;;;;;;;;;;5075071;28;20514;-64
2022/03/21 03:54:25;;;;;;;53.70;27.70;;;;;;;;;;5074903;28;20021;-64
2022/03/21 03:56:51;;;;;;;55.88;27.80;;;;;;;;;;5074008;28;20025;-64
2022/03/21 03:59:18;;;;;;;55.03;27.13;;;;;;;;;;5074669;28;20028;-64
2022/03/21 04:01:44;;;;;;;59.63;27.98;;;;;;;;;;5074164;28;20424;-64
2022/03/21 04:04:10;;;;;;;54.83;26.40;;;;;;;;;;5074869;28;20036;-64
2022/03/21 04:06:36;;;;;;;57.63;26.75;;;;;;;;;;5074261;28;20032;-64
2022/03/21 04:09:02;;;;;;;61.58;28.27;;;;;;;;;;5071163;28;20145;-64
2022/03/21 04:11:28;;;;;;;48.33;25.98;;;;;;;;;;5074164;28;20029;-64
2022/03/21 04:13:55;;;;;;;54.42;25.88;;;;;;;;;;5073421;28;20040;-64
2022/03/21 04:16:21;;;;;;;54.97;27.13;;;;;;;;;;5074430;28;20028;-64
2022/03/21 04:18:48;;;;;;;60.08;26.75;;;;;;;;;;5073439;28;20412;-64
2022/03/21 04:21:14;;;;;;;51.00;26.20;;;;;;;;;;5074511;28;20036;-64
2022/03/21 04:23:40;;;;;;;48.88;25.42;;;;;;;;;;5073685;28;20449;-64
2022/03/21 04:26:06;;;;;;;53.25;26.98;;;;;;;;;;5074233;28;20021;-64
2022/03/21 04:28:33;;;;;;;60.38;27.63;;;;;;;;;;5067395;28;20028;-64
2022/03/21 04:30:59;;;;;;;53.33;25.33;;;;;;;;;;5070460;28;20025;-64
2022/03/21 04:33:26;;;;;;;53.70;26.27;;;;;;;;;;5073533;28;20458;-64
2022/03/21 04:35:52;;;;;;;52.85;25.77;;;;;;;;;;5073026;28;20415;-64
2022/03/21 04:38:18;;;;;;;59.67;26.92;;;;;;;;;;5073600;28;20032;-64
2022/03/21 04:40:46;;;;;;;53.28;25.45;;;;;;;;;;5072958;28;20028;-64
2022/03/21 04:43:13;;;;;;;54.53;24.23;;;;;;;;;;5070461;28;20032;-64
2022/03/21 04:45:39;;;;;;;60.28;26.40;;;;;;;;;;5073383;28;20043;-64
2022/03/21 04:48:06;;;;;;;49.47;24.70;;;;;;;;;;5069611;28;20024;-64
2022/03/21 04:50:33;;;;;;;57.63;25.73;;;;;;;;;;5071205;28;20032;-64
2022/03/21 04:52:59;;;;;;;55.88;26.00;;;;;;;;;;5061926;28;20027;-64
2022/03/21 04:55:25;;;;;;;51.05;24.40;;;;;;;;;;5071540;28;20057;-64
2022/03/21 04:57:51;;;;;;;50.30;25.30;;;;;;;;;;5072980;28;20016;-64
2022/03/21 05:00:18;;;;;;;49.40;25.73;;;;;;;;;;5068261;28;20070;-64
2022/03/21 05:02:44;;;;;;;50.40;25.60;;;;;;;;;;5071773;28;20127;-64
2022/03/21 05:05:10;;;;;;;58.17;27.13;;;;;;;;;;5072276;28;20017;-64
2022/03/21 05:07:43;;;;;;;53.30;25.85;;;;;;;;;;5072788;28;20047;-64
2022/03/21 05:10:10;;;;;;;52.13;26.92;;;;;;;;;;5071391;28;20406;-64
2022/03/21 05:12:36;;;;;;;53.63;25.10;;;;;;;;;;5060859;28;20048;-64
2022/03/21 05:15:04;;;;;;;53.58;25.35;;;;;;;;;;5073267;28;20057;-64
2022/03/21 05:17:30;;;;;;;53.33;25.70;;;;;;;;;;5073459;28;20115;-64
2022/03/21 05:19:57;;;;;;;51.15;24.90;;;;;;;;;;5071627;28;20024;-64
2022/03/21 05:22:23;;;;;;;48.70;23.65;;;;;;;;;;5069758;28;20028;-64
2022/03/21 05:35:55;;;;;;;51.45;25.38;;;;;;;;;;5072951;28;20488;-64
2022/03/21 05:38:25;;;;;;;55.35;26.15;;;;;;;;;;5064026;28;20025;-64
2022/03/21 05:40:52;;;;;;;52.53;25.20;;;;;;;;;;5072505;28;20032;-64
2022/03/21 05:43:18;;;;;;;58.53;25.73;;;;;;;;;;5067244;28;20024;-64
2022/03/21 05:45:44;;;;;;;58.45;27.40;;;;;;;;;;5071146;28;20066;-64
2022/03/21 05:50:55;;;;;;;52.85;25.85;;;;;;;;;;5068520;28;20032;-64
2022/03/21 05:53:21;;;;;;;52.53;24.35;;;;;;;;;;5069396;28;20028;-64
2022/03/21 05:55:48;;;;;;;45.88;23.65;;;;;;;;;;5067793;28;20028;-64
2022/03/21 05:58:14;;;;;;;54.45;23.90;;;;;;;;;;5069686;28;20502;-64
2022/03/21 06:00:40;;;;;;;45.65;22.33;;;;;;;;;;5069462;28;20690;-64
2022/03/21 06:03:08;;;;;;;49.67;23.25;;;;;;;;;;5069598;28;20546;-64
2022/03/21 06:05:37;;;;;;;52.92;24.10;;;;;;;;;;5069618;28;20027;-64
2022/03/21 06:08:03;;;;;;;53.17;25.15;;;;;;;;;;5069373;28;20012;-64
2022/03/21 06:10:30;;;;;;;57.58;23.58;;;;;;;;;;5069945;28;20074;-64
2022/03/21 06:12:56;;;;;;;53.30;24.92;;;;;;;;;;5070580;28;20083;-64
2022/03/21 06:15:22;;;;;;;49.47;24.27;;;;;;;;;;5070471;28;20574;-64
2022/03/21 06:17:48;;;;;;;48.97;25.67;;;;;;;;;;5069646;28;20472;-64
2022/03/21 06:20:16;;;;;;;51.38;24.83;;;;;;;;;;5067754;28;20099;-64
2022/03/21 06:22:43;;;;;;;48.03;23.83;;;;;;;;;;5070697;28;20029;-64
2022/03/21 06:25:10;;;;;;;47.15;24.05;;;;;;;;;;5068493;28;20438;-64
2022/03/21 06:27:37;;;;;;;53.97;24.23;;;;;;;;;;5069440;28;20035;-64
2022/03/21 06:30:04;;;;;;;50.15;23.92;;;;;;;;;;5071219;28;20074;-63
2022/03/21 06:32:31;;;;;;;41.50;21.17;;;;;;;;;;5067659;28;20047;-63
2022/03/21 06:34:57;;;;;;;50.00;23.33;;;;;;;;;;5066115;28;20029;-63
2022/03/21 06:37:23;;;;;;;46.15;22.88;;;;;;;;;;5068668;28;20392;-64
2022/03/21 06:39:50;;;;;;;49.45;21.65;;;;;;;;;;5063775;28;20436;-63
2022/03/21 06:42:17;;;;;;;48.20;22.23;;;;;;;;;;5066350;28;20045;-64
2022/03/21 06:44:43;;;;;;;48.00;23.08;;;;;;;;;;5068825;28;20523;-64
2022/03/21 06:47:10;;;;;;;53.08;22.10;;;;;;;;;;5069085;28;20071;-64
2022/03/21 06:49:36;;;;;;;43.47;22.05;;;;;;;;;;5070174;28;20016;-64
2022/03/21 06:52:05;;;;;;;44.92;23.20;;;;;;;;;;5069522;28;20090;-64
2022/03/21 06:54:32;;;;;;;56.80;24.20;;;;;;;;;;5068409;28;20041;-64
2022/03/21 06:56:59;;;;;;;46.75;22.33;;;;;;;;;;5069874;28;20045;-64
2022/03/21 06:59:25;;;;;;;48.35;22.70;;;;;;;;;;5066845;28;20648;-64
2022/03/21 07:01:51;;;;;;;54.70;23.73;;;;;;;;;;5067384;28;20017;-64
2022/03/21 07:04:17;;;;;;;47.80;23.40;;;;;;;;;;5067762;28;20431;-64
2022/03/21 07:06:44;;;;;;;48.55;22.52;;;;;;;;;;5070249;28;20111;-64
2022/03/21 07:09:10;;;;;;;46.03;21.38;;;;;;;;;;5067739;28;20035;-64
2022/03/21 07:11:37;;;;;;;42.22;21.70;;;;;;;;;;5066410;28;20040;-64
2022/03/21 07:14:03;;;;;;;47.30;22.65;;;;;;;;;;5063509;28;20106;-64
2022/03/21 07:16:29;;;;;;;42.22;21.40;;;;;;;;;;5067064;28;20034;-64
2022/03/21 07:18:56;;;;;;;47.05;21.70;;;;;;;;;;5067507;28;20362;-64
2022/03/21 07:21:22;;;;;;;41.55;20.90;;;;;;;;;;5065241;28;20448;-64
2022/03/21 07:23:48;;;;;;;45.05;21.17;;;;;;;;;;5066096;28;20487;-64
2022/03/21 07:26:15;;;;;;;45.90;22.40;;;;;;;;;;5065437;28;20056;-64
2022/03/21 07:28:41;;;;;;;45.00;21.20;;;;;;;;;;5064895;28;20442;-64
2022/03/21 07:31:09;;;;;;;45.28;20.90;;;;;;;;;;5065852;28;20024;-64
2022/03/21 07:33:36;;;;;;;41.13;19.75;;;;;;;;;;5068560;28;20520;-64
2022/03/21 07:36:03;;;;;;;45.00;20.58;;;;;;;;;;5071038;28;20043;-63
2022/03/21 07:38:29;;;;;;;40.60;18.92;;;;;;;;;;5071730;28;20031;-64
2022/03/21 07:40:56;;;;;;;34.28;18.67;;;;;;;;;;5071982;28;20033;-64
2022/03/21 07:43:22;;;;;;;44.45;19.02;;;;;;;;;;5070604;28;20136;-64
2022/03/21 07:48:33;;;;;;;34.30;18.13;;;;;;;;;;5070334;28;20111;-63
2022/03/21 07:50:59;;;;;;;36.65;18.05;;;;;;;;;;5071733;28;20041;-64
2022/03/21 07:53:26;;;;;;;34.47;17.85;;;;;;;;;;5070375;28;20083;-64
2022/03/21 07:55:53;;;;;;;29.98;16.33;;;;;;;;;;5072527;28;20025;-63
2022/03/21 07:58:19;;;;;;;30.05;15.77;;;;;;;;;;5070667;28;20020;-63
2022/03/21 08:00:45;;;;;;;30.98;16.13;;;;;;;;;;5071134;28;20104;-63
2022/03/21 08:03:13;;;;;;;29.95;15.43;;;;;;;;;;5069879;28;20021;-63
2022/03/21 08:05:39;;;;;;;29.73;14.60;;;;;;;;;;5073863;28;20054;-64
2022/03/21 08:08:07;;;;;;;26.80;14.07;;;;;;;;;;5071133;28;20103;-64
2022/03/21 08:10:33;;;;;;;27.23;14.60;;;;;;;;;;5071370;28;20028;-64
2022/03/21 08:12:59;;;;;;;33.03;15.25;;;;;;;;;;5071019;28;20055;-64
2022/03/21 08:15:29;;;;;;;32.67;15.15;;;;;;;;;;5071515;28;20445;-64
2022/03/21 08:17:59;;;;;;;25.45;13.93;;;;;;;;;;5071201;28;20033;-64
2022/03/21 08:20:33;;;;;;;26.23;14.90;;;;;;;;;;5067767;28;20052;-64
2022/03/21 08:22:59;;;;;;;29.20;13.93;;;;;;;;;;5069232;28;20036;-64
2022/03/21 08:25:26;;;;;;;27.77;13.50;;;;;;;;;;5068558;28;20021;-64
2022/03/21 08:27:52;;;;;;;29.35;14.52;;;;;;;;;;5069799;28;20043;-64
2022/03/21 08:30:18;;;;;;;24.30;13.25;;;;;;;;;;5069585;28;20031;-64
2022/03/21 08:32:45;;;;;;;28.08;13.57;;;;;;;;;;5070300;28;20040;-64
2022/03/21 08:35:11;;;;;;;27.05;13.13;;;;;;;;;;5069741;28;20103;-64
2022/03/21 08:37:38;;;;;;;23.05;12.82;;;;;;;;;;5067930;28;20112;-65
2022/03/21 08:40:04;;;;;;;24.40;12.73;;;;;;;;;;5069553;28;20035;-64
2022/03/21 08:42:30;;;;;;;24.98;12.15;;;;;;;;;;5070438;28;20501;-64
2022/03/21 08:44:56;;;;;;;25.48;12.63;;;;;;;;;;5070691;28;20040;-64
2022/03/21 08:47:23;;;;;;;19.52;11.40;;;;;;;;;;5070689;28;20033;-62
2022/03/21 08:49:49;;;;;;;25.65;11.40;;;;;;;;;;5071925;28;20039;-62
2022/03/21 08:52:15;;;;;;;19.48;10.40;;;;;;;;;;5067848;28;20045;-62
2022/03/21 08:54:41;;;;;;;21.55;10.40;;;;;;;;;;5070237;28;20391;-62
2022/03/21 08:57:07;;;;;;;20.92;9.38;;;;;;;;;;5070548;28;20058;-62
2022/03/21 08:59:34;;;;;;;19.45;10.05;;;;;;;;;;5068940;28;20068;-62
2022/03/21 09:02:00;;;;;;;17.77;9.02;;;;;;;;;;5068677;28;20499;-62
2022/03/21 09:04:26;;;;;;;17.13;9.50;;;;;;;;;;5068449;28;20029;-61
2022/03/21 09:06:53;;;;;;;22.80;9.70;;;;;;;;;;5068700;28;20407;-62
2022/03/21 09:09:19;;;;;;;15.77;8.68;;;;;;;;;;5069420;28;20016;-62
2022/03/21 09:11:45;;;;;;;15.27;8.50;;;;;;;;;;5066799;28;20042;-62
2022/03/21 09:14:12;;;;;;;11.80;6.43;;;;;;;;;;5069885;28;20039;-62
2022/03/21 09:16:39;;;;;;;11.65;6.28;;;;;;;;;;5068666;28;20025;-62
2022/03/21 09:19:08;;;;;;;10.27;6.03;;;;;;;;;;5068279;28;20024;-62
2022/03/21 09:21:35;;;;;;;9.88;5.63;;;;;;;;;;5069263;28;20036;-62
2022/03/21 09:24:01;;;;;;;8.68;5.30;;;;;;;;;;5067548;28;20392;-62
2022/03/21 09:26:27;;;;;;;15.00;5.20;;;;;;;;;;5070479;28;20153;-62
2022/03/21 09:29:00;;;;;;;10.57;4.85;;;;;;;;;;5070475;28;20456;-62
2022/03/21 09:31:29;;;;;;;11.98;5.07;;;;;;;;;;5067593;28;20492;-62
2022/03/21 09:33:56;;;;;;;11.45;5.03;;;;;;;;;;5070289;28;20072;-62
2022/03/21 09:36:22;;;;;;;8.43;4.75;;;;;;;;;;5069058;28;20044;-62
2022/03/21 09:38:49;;;;;;;7.40;4.72;;;;;;;;;;5068368;28;20403;-62
2022/03/21 09:41:22;;;;;;;9.82;4.40;;;;;;;;;;5070779;28;20081;-62
2022/03/21 09:43:50;;;;;;;9.55;4.35;;;;;;;;;;5068801;28;20033;-62
2022/03/21 09:46:17;;;;;;;12.00;5.30;;;;;;;;;;5070766;28;20119;-62
2022/03/21 09:48:47;;;;;;;9.98;4.32;;;;;;;;;;5070489;28;20024;-62
2022/03/21 09:51:13;;;;;;;11.13;5.35;;;;;;;;;;5071599;28;20039;-62
2022/03/21 09:53:40;;;;;;;9.30;5.00;;;;;;;;;;5067213;28;20185;-62
2022/03/21 09:56:08;;;;;;;7.65;4.13;;;;;;;;;;5071014;28;20476;-62
2022/03/21 09:58:35;;;;;;;7.85;4.32;;;;;;;;;;5067709;28;20565;-62
2022/03/21 10:01:01;;;;;;;7.75;3.95;;;;;;;;;;5072053;28;20021;-62
2022/03/21 10:03:28;;;;;;;9.10;4.07;;;;;;;;;;5071142;28;20453;-62
2022/03/21 10:05:54;;;;;;;18.13;3.70;;;;;;;;;;5067005;28;20060;-62
2022/03/21 10:08:21;;;;;;;7.35;3.72;;;;;;;;;;5064171;28;20056;-62
2022/03/21 10:10:54;;;;;;;4.97;3.20;;;;;;;;;;5062810;28;20177;-62
2022/03/21 10:13:21;;;;;;;5.85;3.60;;;;;;;;;;5066942;28;20033;-62
2022/03/21 10:15:49;;;;;;;5.28;3.35;;;;;;;;;;5067388;28;20476;-62
2022/03/21 10:18:18;;;;;;;7.38;3.88;;;;;;;;;;5068825;28;20040;-62
2022/03/21 10:20:45;;;;;;;5.50;2.90;;;;;;;;;;5066764;28;20078;-61
2022/03/21 10:23:15;;;;;;;6.32;2.70;;;;;;;;;;5066579;28;20128;-61
2022/03/21 10:25:41;;;;;;;4.85;2.47;;;;;;;;;;5071003;28;20036;-62
2022/03/21 10:28:07;;;;;;;8.52;3.10;;;;;;;;;;5068511;28;20028;-62
2022/03/21 10:30:34;;;;;;;4.75;2.83;;;;;;;;;;5069637;28;20400;-62
2022/03/21 10:33:00;;;;;;;9.88;2.88;;;;;;;;;;5068013;28;20020;-62
2022/03/21 10:35:28;;;;;;;7.85;2.92;;;;;;;;;;5069462;28;20047;-61
2022/03/21 10:37:58;;;;;;;8.02;2.70;;;;;;;;;;5063062;28;20036;-62
2022/03/21 10:40:44;;;;;;;7.93;2.85;;;;;;;;;;5065350;28;20037;-61
2022/03/21 10:43:11;;;;;;;4.13;2.40;;;;;;;;;;5069804;28;20469;-62
2022/03/21 10:45:47;;;;;;;4.13;2.67;;;;;;;;;;5067293;28;20060;-62
2022/03/21 10:48:15;;;;;;;7.75;2.75;;;;;;;;;;5068394;28;20033;-62
2022/03/21 10:50:42;;;;;;;7.20;2.80;;;;;;;;;;5068746;28;20535;-62
2022/03/21 10:53:08;;;;;;;7.10;2.55;;;;;;;;;;5067911;28;20033;-62
2022/03/21 10:55:35;;;;;;;7.90;3.10;;;;;;;;;;5064675;28;20093;-62
2022/03/21 10:58:01;;;;;;;8.00;3.03;;;;;;;;;;5068205;28;20023;-62
2022/03/21 11:00:28;;;;;;;8.73;3.17;;;;;;;;;;5069022;28;20028;-62
2022/03/21 11:02:55;;;;;;;5.68;3.30;;;;;;;;;;5069811;28;20480;-62
2022/03/21 11:05:22;;;;;;;7.63;3.00;;;;;;;;;;5068866;28;20086;-62
2022/03/21 11:07:48;;;;;;;3.63;2.17;;;;;;;;;;5073434;28;20087;-62
2022/03/21 11:10:15;;;;;;;6.38;2.63;;;;;;;;;;5068364;28;20070;-62
2022/03/21 11:12:42;;;;;;;8.65;3.00;;;;;;;;;;5071553;28;20051;-62
2022/03/21 11:15:12;;;;;;;7.78;3.30;;;;;;;;;;5074641;28;20416;-62
2022/03/21 11:17:38;;;;;;;5.00;2.15;;;;;;;;;;5072882;28;20039;-67
2022/03/21 11:20:05;;;;;;;5.68;2.88;;;;;;;;;;5073556;28;20028;-62
2022/03/21 11:22:34;;;;;;;6.88;2.50;;;;;;;;;;5072062;28;20043;-61
2022/03/21 11:25:07;;;;;;;9.15;2.70;;;;;;;;;;5072668;28;20035;-61
2022/03/21 11:27:42;;;;;;;17.02;2.60;;;;;;;;;;5073027;28;20178;-61
2022/03/21 11:30:12;;;;;;;8.10;2.40;;;;;;;;;;5072876;28;20131;-62
2022/03/21 11:32:44;;;;;;;5.13;2.92;;;;;;;;;;5073633;28;20024;-61
2022/03/21 11:35:12;;;;;;;5.80;2.30;;;;;;;;;;5070963;28;20028;-61
2022/03/21 11:37:38;;;;;;;9.20;2.72;;;;;;;;;;5072851;28;20028;-61
2022/03/21 11:40:23;;;;;;;4.25;2.45;;;;;;;;;;5072689;28;20029;-61
2022/03/21 11:42:49;;;;;;;7.65;3.75;;;;;;;;;;5070937;28;20024;-62
2022/03/21 11:45:25;;;;;;;4.50;1.73;;;;;;;;;;5073612;28;20039;-62
2022/03/21 11:48:10;;;;;;;5.93;2.10;;;;;;;;;;5073597;28;20028;-61
2022/03/21 11:50:36;;;;;;;4.65;2.03;;;;;;;;;;5071140;28;20047;-61
2022/03/21 11:53:09;;;;;;;7.18;2.55;;;;;;;;;;5071439;28;20069;-62
2022/03/21 11:55:35;;;;;;;;;;;;;;;;;;5075604;28;20510;-62
2022/03/21 11:58:20;;;;;;;9.30;2.97;;;;;;;;;;5075688;28;19916;-62
2022/03/21 12:01:03;;;;;;;3.80;2.40;;;;;;;;;;5076518;28;20454;-62
2022/03/21 12:03:29;;;;;;;;;;;;;;;;;;5085703;28;20036;-62
2022/03/21 12:05:55;;;;;;;5.05;2.30;;;;;;;;;;5078969;28;20272;-62
2022/03/21 12:08:35;;;;;;;3.50;1.75;;;;;;;;;;5077347;28;20036;-62
2022/03/21 12:11:01;;;;;;;6.03;2.33;;;;;;;;;;5074139;28;20047;-62
2022/03/21 12:13:41;;;;;;;6.60;1.80;;;;;;;;;;5076433;28;20114;-62
2022/03/21 12:16:20;;;;;;;3.13;2.00;;;;;;;;;;5081907;28;20020;-62
2022/03/21 12:18:59;;;;;;;2.38;1.70;;;;;;;;;;5078770;28;20028;-62
2022/03/21 12:21:25;;;;;;;7.47;2.10;;;;;;;;;;5072792;28;20038;-62
2022/03/21 12:24:24;;;;;;;6.35;2.13;;;;;;;;;;5082969;28;20026;-62
2022/03/21 12:26:52;;;;;;;9.25;1.98;;;;;;;;;;5082389;28;20125;-62
2022/03/21 12:29:44;;;;;;;6.63;2.08;;;;;;;;;;5074333;28;20485;-61
2022/03/21 12:32:24;;;;;;;6.53;1.80;;;;;;;;;;5073577;28;20036;-62
2022/03/21 12:34:51;;;;;;;4.53;2.10;;;;;;;;;;5076743;28;20496;-62
2022/03/21 12:37:25;;;;;;;11.45;2.28;;;;;;;;;;5074367;28;20043;-61
2022/03/21 12:39:53;;;;;;;7.05;1.95;;;;;;;;;;5076203;28;20025;-62
2022/03/21 12:42:20;;;;;;;5.03;2.40;;;;;;;;;;5070921;28;20044;-62
2022/03/21 12:44:46;;;;;;;6.30;2.58;;;;;;;;;;5082709;28;20423;-62
2022/03/21 12:47:13;;;;;;;4.82;2.35;;;;;;;;;;5078552;28;20032;-62
2022/03/21 12:49:49;;;;;;;6.05;2.50;;;;;;;;;;5079057;28;20519;-62
2022/03/21 12:52:29;;;;;;;5.20;2.45;;;;;;;;;;5075297;28;20040;-62
2022/03/21 12:54:57;;;;;;;5.90;2.25;;;;;;;;;;5069210;28;20491;-62
2022/03/21 12:57:23;;;;;;;9.43;3.08;;;;;;;;;;5074659;28;20040;-62
2022/03/21 12:59:49;;;;;;;8.80;2.65;;;;;;;;;;5073702;28;20135;-61
2022/03/21 13:02:25;;;;;;;6.93;2.80;;;;;;;;;;5068655;28;20048;-62
2022/03/21 13:10:34;;;;;;;5.38;3.17;;;;;;;;;;5080009;28;20029;-61
2022/03/21 13:13:01;;;;;;;6.40;2.55;;;;;;;;;;5077670;28;20040;-61
2022/03/21 13:15:28;;;;;;;8.55;2.45;;;;;;;;;;5075911;28;20032;-61
2022/03/21 13:18:01;;;;;;;6.72;2.60;;;;;;;;;;5076851;28;20612;-61
2022/03/21 13:20:29;;;;;;;4.97;2.22;;;;;;;;;;5076685;28;20530;-61
2022/03/21 13:22:56;;;;;;;8.27;3.10;;;;;;;;;;5074634;28;20020;-62
2022/03/21 13:25:24;;;;;;;8.20;2.50;;;;;;;;;;5078183;28;20040;-61
2022/03/21 13:27:50;;;;;;;6.70;2.33;;;;;;;;;;5076716;28;20036;-62
2022/03/21 13:30:17;;;;;;;9.40;2.63;;;;;;;;;;5083730;28;20039;-62
2022/03/21 13:32:44;;;;;;;7.90;2.25;;;;;;;;;;5075630;28;20028;-61
2022/03/21 13:35:12;;;;;;;9.38;2.65;;;;;;;;;;5077316;28;20093;-61
2022/03/21 13:37:39;;;;;;;5.40;2.28;;;;;;;;;;5081055;28;20395;-61
2022/03/21 13:40:06;;;;;;;7.85;2.90;;;;;;;;;;5081095;28;20028;-62
2022/03/21 13:42:33;;;;;;;9.52;2.13;;;;;;;;;;5075774;28;20047;-61
2022/03/21 13:45:03;;;;;;;6.35;2.45;;;;;;;;;;5077367;28;20020;-61
2022/03/21 13:47:30;;;;;;;5.45;2.28;;;;;;;;;;5078188;28;20047;-61
2022/03/21 13:49:57;;;;;;;9.85;2.63;;;;;;;;;;5073131;28;20081;-61
2022/03/21 13:52:45;;;;;;;6.55;2.38;;;;;;;;;;5072643;28;20061;-62
2022/03/21 13:55:13;;;;;;;6.60;2.35;;;;;;;;;;5076937;28;20036;-62
2022/03/21 13:57:44;;;;;;;6.63;2.17;;;;;;;;;;5066153;28;20069;-61
2022/03/21 14:00:10;;;;;;;5.38;2.00;;;;;;;;;;5075814;28;20056;-61
2022/03/21 14:02:41;;;;;;;8.88;2.90;;;;;;;;;;5072109;28;20046;-61
2022/03/21 14:05:20;;;;;;;6.78;2.40;;;;;;;;;;5076115;28;20472;-61
2022/03/21 14:07:48;;;;;;;3.58;2.33;;;;;;;;;;5076603;28;20397;-61
2022/03/21 14:10:19;;;;;;;9.63;2.33;;;;;;;;;;5082100;28;20063;-61
2022/03/21 14:12:52;;;;;;;6.95;2.65;;;;;;;;;;5081608;28;20223;-61
2022/03/21 14:15:19;;;;;;;10.00;2.17;;;;;;;;;;5080502;28;20020;-61
2022/03/21 14:17:46;;;;;;;6.70;2.35;;;;;;;;;;5081334;28;20032;-61
2022/03/21 14:20:12;;;;;;;8.23;2.65;;;;;;;;;;5076638;28;20051;-61
2022/03/21 14:22:38;;;;;;;8.57;2.80;;;;;;;;;;5079936;28;20480;-61
2022/03/21 14:26:29;;;;;;;6.20;2.85;;;;;;;;;;5081320;28;20059;-61
2022/03/21 14:27:50;;;;;;;8.13;2.67;;;;;;;;;;5074964;28;20029;-61
2022/03/21 14:30:16;;;;;;;7.28;2.75;;;;;;;;;;5076262;28;20075;-61
2022/03/21 14:32:42;;;;;;;8.23;2.47;;;;;;;;;;5083486;28;20454;-61
2022/03/21 14:35:09;;;;;;;15.93;2.97;;;;;;;;;;5087475;28;20020;-61
2022/03/21 14:37:35;;;;;;;6.30;2.75;;;;;;;;;;5086737;28;20042;-61
2022/03/21 14:40:01;;;;;;;8.40;2.85;;;;;;;;;;5084940;28;20119;-61
2022/03/21 14:42:28;;;;;;;7.32;2.50;;;;;;;;;;5079438;28;20036;-61
2022/03/21 14:44:54;;;;;;;7.47;3.13;;;;;;;;;;5084527;28;20059;-61
2022/03/21 14:47:22;;;;;;;6.25;2.25;;;;;;;;;;5086756;28;20021;-61
2022/03/21 14:49:48;;;;;;;5.78;2.95;;;;;;;;;;5081338;28;20075;-61
2022/03/21 14:52:14;;;;;;;6.78;2.40;;;;;;;;;;5081659;28;20428;-61
2022/03/21 14:54:42;;;;;;;11.95;3.58;;;;;;;;;;5091117;28;20111;-61